createdAt,value
2023-05-20T00:01:28.195Z,102216.34
2023-05-20T00:04:12.059Z,102215.94
2023-05-20T00:06:55.855Z,102214.00
2023-05-20T00:09:39.847Z,102219.00
2023-05-20T00:12:23.549Z,102224.97
2023-05-20T00:15:08.006Z,102212.69
2023-05-20T00:17:51.712Z,102220.31
2023-05-20T00:20:35.294Z,102206.47
2023-05-20T00:23:18.856Z,102211.38
2023-05-20T00:26:02.446Z,102210.97
2023-05-20T00:28:46.036Z,102208.13
2023-05-20T00:31:29.793Z,102211.78
2023-05-20T00:34:13.778Z,102215.72
2023-05-20T00:36:57.432Z,102212.56
2023-05-20T00:39:41.142Z,102214.94
2023-05-20T00:42:29.533Z,102209.84
2023-05-20T00:45:13.300Z,102219.34
2023-05-20T00:47:59.839Z,102218.22
2023-05-20T00:50:43.903Z,102217.25
2023-05-20T00:53:27.659Z,102209.03
2023-05-20T00:56:12.570Z,102209.97
2023-05-20T00:58:57.639Z,102224.91
2023-05-20T01:01:41.833Z,102215.22
2023-05-20T01:04:26.125Z,102214.00
2023-05-20T01:07:09.687Z,102216.53
2023-05-20T01:09:56.159Z,102209.47
2023-05-20T01:12:48.818Z,102200.84
2023-05-20T01:15:33.405Z,102198.13
2023-05-20T01:18:21.471Z,102197.81
2023-05-20T01:21:11.099Z,102199.19
2023-05-20T01:23:55.104Z,102200.69
2023-05-20T01:26:38.657Z,102197.03
2023-05-20T01:29:22.513Z,102192.47
2023-05-20T01:32:15.815Z,102185.25
2023-05-20T01:35:01.177Z,102187.38
2023-05-20T01:37:46.483Z,102190.22
2023-05-20T01:40:31.691Z,102186.09
2023-05-20T01:43:18.066Z,102188.72
2023-05-20T01:46:03.148Z,102186.78
2023-05-20T01:48:46.817Z,102189.13
2023-05-20T01:51:31.286Z,102185.97
2023-05-20T01:54:14.996Z,102192.34
2023-05-20T01:56:58.608Z,102189.13
2023-05-20T01:59:42.208Z,102177.16
2023-05-20T02:02:26.015Z,102175.94
2023-05-20T02:05:10.244Z,102179.69
2023-05-20T02:07:53.842Z,102182.31
2023-05-20T02:10:37.748Z,102175.44
2023-05-20T02:13:21.499Z,102183.69
2023-05-20T02:16:06.135Z,102177.75
2023-05-20T02:18:51.814Z,102175.00
2023-05-20T02:21:35.522Z,102178.25
2023-05-20T02:24:21.294Z,102168.53
2023-05-20T02:27:06.466Z,102166.94
2023-05-20T02:29:50.950Z,102167.00
2023-05-20T02:32:35.990Z,102161.34
2023-05-20T02:35:19.684Z,102162.06
2023-05-20T02:38:03.258Z,102172.59
2023-05-20T02:40:46.877Z,102165.41
2023-05-20T02:43:32.409Z,102176.13
2023-05-20T02:46:19.850Z,102175.50
2023-05-20T02:49:03.473Z,102180.00
2023-05-20T02:51:47.093Z,102182.44
2023-05-20T02:54:31.962Z,102179.28
2023-05-20T02:57:16.547Z,102176.25
2023-05-20T03:00:00.753Z,102186.47
2023-05-20T03:02:44.561Z,102189.16
2023-05-20T03:05:28.351Z,102189.47
2023-05-20T03:08:13.647Z,102186.16
2023-05-20T03:10:57.396Z,102185.84
2023-05-20T03:13:41.295Z,102191.94
2023-05-20T03:16:25.432Z,102196.00
2023-05-20T03:19:09.280Z,102186.44
2023-05-20T03:21:55.796Z,102195.94
2023-05-20T03:25:46.626Z,102199.31
2023-05-20T03:33:22.922Z,102198.28
2023-05-20T03:36:06.909Z,102194.91
2023-05-20T03:38:51.410Z,102191.75
2023-05-20T03:41:35.545Z,102192.84
2023-05-20T03:44:19.974Z,102192.41
2023-05-20T03:47:04.023Z,102193.16
2023-05-20T03:49:48.683Z,102200.63
2023-05-20T03:52:32.720Z,102196.50
2023-05-20T03:55:17.538Z,102201.66
2023-05-20T03:58:02.741Z,102202.19
2023-05-20T04:00:47.702Z,102207.63
2023-05-20T04:03:31.950Z,102195.38
2023-05-20T04:06:16.318Z,102206.66
2023-05-20T04:09:00.163Z,102199.00
2023-05-20T04:11:44.073Z,102189.44
2023-05-20T04:14:35.253Z,102189.56
2023-05-20T04:17:19.601Z,102188.91
2023-05-20T04:20:09.393Z,102184.69
2023-05-20T04:22:56.248Z,102187.47
2023-05-20T04:25:41.626Z,102188.97
2023-05-20T04:28:28.500Z,102187.97
2023-05-20T04:31:13.068Z,102194.94
2023-05-20T04:33:58.210Z,102196.28
2023-05-20T04:36:42.172Z,102190.75
2023-05-20T04:39:27.346Z,102198.09
2023-05-20T04:42:13.734Z,102200.94
2023-05-20T04:44:58.532Z,102195.03
2023-05-20T04:57:42.885Z,102183.66
2023-05-20T05:00:27.035Z,102184.78
2023-05-20T05:03:19.057Z,102185.06
2023-05-20T05:06:11.375Z,102182.25
2023-05-20T05:08:57.147Z,102186.63
2023-05-20T05:11:44.052Z,102184.66
2023-05-20T05:14:31.931Z,102186.22
2023-05-20T05:17:19.329Z,102185.56
2023-05-20T05:23:09.776Z,102190.03
2023-05-20T05:25:54.160Z,102195.94
2023-05-20T05:28:38.209Z,102196.94
2023-05-20T05:31:21.966Z,102197.44
2023-05-20T05:34:05.754Z,102193.25
2023-05-20T05:36:51.186Z,102192.41
2023-05-20T05:39:37.822Z,102190.16
2023-05-20T05:42:22.439Z,102184.72
2023-05-20T05:45:08.309Z,102184.75
2023-05-20T05:47:52.863Z,102181.75
2023-05-20T05:50:38.721Z,102178.31
2023-05-20T05:53:26.955Z,102174.97
2023-05-20T05:56:15.910Z,102179.59
2023-05-20T05:59:19.016Z,102171.59
2023-05-20T06:02:05.975Z,102170.50
2023-05-20T06:04:56.524Z,102173.28
2023-05-20T06:07:42.627Z,102170.50
2023-05-20T06:10:34.542Z,102167.53
2023-05-20T06:16:36.017Z,102153.91
2023-05-20T06:19:25.595Z,102162.41
2023-05-20T06:22:16.500Z,102165.31
2023-05-20T06:25:04.755Z,102160.69
2023-05-20T06:27:53.110Z,102161.25
2023-05-20T06:30:42.915Z,102162.13
2023-05-20T06:33:30.925Z,102168.88
2023-05-20T06:36:18.930Z,102161.56
2023-05-20T06:39:05.100Z,102169.66
2023-05-20T06:41:48.994Z,102168.44
2023-05-20T06:44:44.521Z,102171.69
2023-05-20T06:47:38.756Z,102175.50
2023-05-20T06:50:24.431Z,102166.59
2023-05-20T06:53:09.130Z,102176.16
2023-05-20T06:55:58.240Z,102168.97
2023-05-20T06:58:43.450Z,102177.25
2023-05-20T07:01:28.100Z,102177.38
2023-05-20T07:04:13.532Z,102181.66
2023-05-20T07:06:59.188Z,102178.00
2023-05-20T07:09:44.259Z,102185.28
2023-05-20T07:12:29.320Z,102181.78
2023-05-20T07:15:13.642Z,102175.72
2023-05-20T07:18:02.485Z,102173.63
2023-05-20T07:20:46.907Z,102172.16
2023-05-20T07:23:44.865Z,102165.84
2023-05-20T07:26:31.659Z,102161.19
2023-05-20T07:29:16.553Z,102154.44
2023-05-20T07:32:08.994Z,102149.25
2023-05-20T07:34:53.692Z,102153.41
2023-05-20T07:37:37.810Z,102148.84
2023-05-20T07:40:23.451Z,102143.59
2023-05-20T07:43:09.394Z,102142.28
2023-05-20T07:45:54.219Z,102148.09
2023-05-20T07:48:38.738Z,102140.53
2023-05-20T07:51:26.807Z,102131.03
2023-05-20T07:54:13.535Z,102119.88
2023-05-20T07:57:01.186Z,102127.03
2023-05-20T07:59:47.465Z,102122.81
2023-05-20T08:02:33.467Z,102123.91
2023-05-20T08:05:20.665Z,102119.09
2023-05-20T08:08:07.048Z,102124.28
2023-05-20T08:11:02.775Z,102126.69
2023-05-20T08:13:48.942Z,102118.13
2023-05-20T08:17:08.026Z,102121.97
2023-05-20T08:19:55.578Z,102129.44
2023-05-20T08:23:02.394Z,102127.16
2023-05-20T08:25:55.680Z,102127.66
2023-05-20T08:28:45.043Z,102117.31
2023-05-20T08:31:40.645Z,102120.34
2023-05-20T08:34:54.195Z,102114.63
2023-05-20T08:37:43.716Z,102113.59
2023-05-20T08:40:43.863Z,102104.41
2023-05-20T08:43:34.661Z,102099.78
2023-05-20T08:52:30.955Z,102102.28
2023-05-20T08:55:44.546Z,102100.38
2023-05-20T09:48:45.203Z,102093.50
2023-05-20T09:51:29.973Z,102084.19
2023-05-20T09:54:15.558Z,102093.91
2023-05-20T09:57:00.821Z,102093.84
2023-05-20T09:59:45.862Z,102086.91
2023-05-20T10:02:30.068Z,102077.31
2023-05-20T10:05:42.215Z,102079.44
2023-05-20T10:08:43.954Z,102081.50
2023-05-20T10:11:45.381Z,102072.69
2023-05-20T10:14:46.579Z,102076.88
2023-05-20T10:18:04.103Z,102068.78
2023-05-20T10:20:49.130Z,102072.59
2023-05-20T10:23:32.796Z,102069.47
2023-05-20T10:26:16.526Z,102069.69
2023-05-20T10:29:00.147Z,102079.91
2023-05-20T10:31:53.316Z,102067.84
2023-05-20T10:34:49.958Z,102070.44
2023-05-20T10:37:46.144Z,102062.97
2023-05-20T10:40:29.791Z,102066.00
2023-05-20T10:43:26.927Z,102061.97
2023-05-20T10:46:31.125Z,102063.56
2023-05-20T10:49:22.290Z,102042.16
2023-05-20T10:52:10.546Z,102048.72
2023-05-20T10:54:54.560Z,102046.34
2023-05-20T10:57:38.374Z,102055.28
2023-05-20T11:00:22.159Z,102047.19
2023-05-20T11:03:07.095Z,102043.53
2023-05-20T11:05:52.014Z,102036.03
2023-05-20T11:08:35.648Z,102036.91
2023-05-20T11:11:19.243Z,102030.13
2023-05-20T11:14:02.986Z,102018.00
2023-05-20T11:16:47.238Z,102020.56
2023-05-20T11:19:30.914Z,102028.88
2023-05-20T11:22:14.867Z,102014.00
2023-05-20T11:24:58.415Z,102013.81
2023-05-20T11:27:43.048Z,102014.94
2023-05-20T11:30:26.864Z,102007.00
2023-05-20T11:33:13.729Z,102013.06
2023-05-20T11:35:57.871Z,102004.75
2023-05-20T11:38:42.619Z,102017.81
2023-05-20T11:41:29.397Z,102009.94
2023-05-20T11:44:13.644Z,101993.31
2023-05-20T11:47:03.980Z,101999.09
2023-05-20T11:49:49.744Z,102007.34
2023-05-20T11:52:34.969Z,102004.81
2023-05-20T11:55:18.544Z,102001.66
2023-05-20T11:58:03.859Z,101998.53
2023-05-20T12:00:53.265Z,101993.06
2023-05-20T12:03:43.109Z,101992.75
2023-05-20T12:06:26.722Z,101983.41
2023-05-20T12:09:11.405Z,101981.59
2023-05-20T12:11:56.801Z,101974.31
2023-05-20T12:14:40.379Z,101988.03
2023-05-20T12:17:23.948Z,101977.75
2023-05-20T12:20:08.310Z,101969.56
2023-05-20T12:22:51.936Z,101962.06
2023-05-20T12:25:35.665Z,101963.94
2023-05-20T12:28:19.693Z,101970.84
2023-05-20T12:31:03.269Z,101962.09
2023-05-20T12:33:47.266Z,101957.47
2023-05-20T12:36:31.667Z,101949.28
2023-05-20T12:39:17.887Z,101950.38
2023-05-20T12:42:01.462Z,101946.81
2023-05-20T12:44:45.034Z,101935.97
2023-05-20T12:47:28.674Z,101933.50
2023-05-20T12:50:12.280Z,101937.47
2023-05-20T12:52:56.129Z,101930.34
2023-05-20T12:55:40.459Z,101946.03
2023-05-20T12:58:24.119Z,101933.13
2023-05-20T13:01:07.776Z,101927.34
2023-05-20T13:03:53.736Z,101922.81
2023-05-20T13:06:37.505Z,101906.72
2023-05-20T13:09:21.242Z,101910.50
2023-05-20T13:12:05.251Z,101908.72
2023-05-20T13:14:48.926Z,101911.56
2023-05-20T13:17:32.658Z,101912.72
2023-05-20T13:20:19.710Z,101904.81
2023-05-20T13:23:03.778Z,101895.81
2023-05-20T13:25:47.371Z,101886.88
2023-05-20T13:28:33.649Z,101885.50
2023-05-20T13:31:17.266Z,101880.28
2023-05-20T13:34:01.009Z,101870.06
2023-05-20T13:36:45.716Z,101874.16
2023-05-20T13:39:31.804Z,101877.78
2023-05-20T13:42:15.506Z,101868.34
2023-05-20T13:44:59.059Z,101864.19
2023-05-20T13:47:42.787Z,101866.00
2023-05-20T13:50:27.130Z,101863.84
2023-05-20T13:53:13.351Z,101856.63
2023-05-20T13:55:57.223Z,101870.50
2023-05-20T13:58:41.133Z,101872.75
2023-05-20T14:01:24.728Z,101863.31
2023-05-20T14:04:08.288Z,101856.41
2023-05-20T14:06:52.021Z,101852.25
2023-05-20T14:09:35.691Z,101844.38
2023-05-20T14:12:19.418Z,101829.88
2023-05-20T14:15:03.029Z,101825.72
2023-05-20T14:17:46.737Z,101841.66
2023-05-20T14:20:30.336Z,101825.75
2023-05-20T14:23:13.962Z,101826.59
2023-05-20T14:25:57.647Z,101826.31
2023-05-20T14:28:41.183Z,101822.94
2023-05-20T14:31:24.863Z,101811.09
2023-05-20T14:34:08.420Z,101809.00
2023-05-20T14:36:52.374Z,101813.91
2023-05-20T14:39:36.835Z,101818.00
2023-05-20T14:42:20.482Z,101813.41
2023-05-20T14:45:04.990Z,101799.44
2023-05-20T14:47:48.643Z,101804.41
2023-05-20T14:50:32.334Z,101797.72
2023-05-20T14:53:17.326Z,101794.34
2023-05-20T14:56:01.151Z,101800.25
2023-05-20T14:58:44.687Z,101779.63
2023-05-20T15:01:28.271Z,101790.34
2023-05-20T15:04:12.410Z,101789.47
2023-05-20T15:06:56.343Z,101791.06
2023-05-20T15:09:40.007Z,101784.28
2023-05-20T15:12:24.549Z,101777.59
2023-05-20T15:15:12.695Z,101779.97
2023-05-20T15:17:56.848Z,101774.50
2023-05-20T15:20:42.023Z,101769.88
2023-05-20T15:23:26.247Z,101769.88
2023-05-20T15:26:13.073Z,101776.31
2023-05-20T15:28:56.759Z,101780.22
2023-05-20T15:31:40.733Z,101772.03
2023-05-20T15:34:25.016Z,101773.59
2023-05-20T15:37:09.025Z,101770.97
2023-05-20T15:39:52.675Z,101769.09
2023-05-20T15:42:36.260Z,101765.69
2023-05-20T15:45:19.924Z,101754.88
2023-05-20T15:48:06.779Z,101760.00
2023-05-20T15:50:50.885Z,101754.34
2023-05-20T15:53:34.883Z,101757.22
2023-05-20T15:56:22.658Z,101748.81
2023-05-20T15:59:06.767Z,101753.47
2023-05-20T16:01:50.822Z,101745.59
2023-05-20T16:04:34.485Z,101738.81
2023-05-20T16:07:18.391Z,101739.19
2023-05-20T16:10:02.197Z,101738.84
2023-05-20T16:12:46.674Z,101738.41
2023-05-20T16:15:36.645Z,101727.22
2023-05-20T16:18:23.523Z,101726.28
2023-05-20T16:21:08.103Z,101724.13
2023-05-20T16:23:52.979Z,101722.25
2023-05-20T16:26:54.939Z,101715.31
2023-05-20T16:29:39.994Z,101715.91
2023-05-20T16:32:23.937Z,101714.09
2023-05-20T16:35:08.532Z,101713.38
2023-05-20T16:37:52.245Z,101708.63
2023-05-20T16:40:36.062Z,101701.34
2023-05-20T16:43:19.692Z,101697.44
2023-05-20T16:46:03.524Z,101700.16
2023-05-20T16:48:47.295Z,101698.13
2023-05-20T16:51:31.250Z,101680.97
2023-05-20T16:54:14.803Z,101687.94
2023-05-20T16:56:58.512Z,101689.47
2023-05-20T16:59:42.479Z,101690.38
2023-05-20T17:02:26.227Z,101696.06
2023-05-20T17:05:10.052Z,101689.03
2023-05-20T17:07:55.845Z,101690.25
2023-05-20T17:10:39.566Z,101695.88
2023-05-20T17:13:23.158Z,101692.97
2023-05-20T17:16:09.861Z,101684.56
2023-05-20T17:18:53.825Z,101681.41
2023-05-20T17:21:37.567Z,101689.47
2023-05-20T17:24:21.140Z,101691.25
2023-05-20T17:27:06.246Z,101689.16
2023-05-20T17:29:49.886Z,101689.91
2023-05-20T17:32:33.472Z,101697.47
2023-05-20T17:35:17.035Z,101681.34
2023-05-20T17:38:00.910Z,101685.19
2023-05-20T17:40:44.469Z,101683.50
2023-05-20T17:43:28.048Z,101684.19
2023-05-20T17:46:12.887Z,101686.19
2023-05-20T17:48:57.126Z,101687.19
2023-05-20T17:51:42.469Z,101696.63
2023-05-20T17:54:26.094Z,101701.91
2023-05-20T17:57:09.713Z,101690.13
2023-05-20T17:59:54.730Z,101685.25
2023-05-20T18:02:38.869Z,101689.03
2023-05-20T18:05:22.810Z,101694.50
2023-05-20T18:08:06.630Z,101684.38
2023-05-20T18:10:50.184Z,101695.63
2023-05-20T18:13:33.740Z,101694.75
2023-05-20T18:16:17.382Z,101696.72
2023-05-20T18:19:00.998Z,101693.00
2023-05-20T18:21:44.721Z,101686.56
2023-05-20T18:24:28.425Z,101692.78
2023-05-20T18:27:12.304Z,101698.03
2023-05-20T18:29:56.052Z,101686.38
2023-05-20T18:32:39.698Z,101688.78
2023-05-20T18:35:23.431Z,101687.00
2023-05-20T18:38:07.363Z,101685.28
2023-05-20T18:40:51.072Z,101682.16
2023-05-20T18:43:34.654Z,101689.56
2023-05-20T18:46:18.826Z,101686.53
2023-05-20T18:49:02.453Z,101697.72
2023-05-20T18:51:46.331Z,101688.66
2023-05-20T18:54:29.923Z,101694.16
2023-05-20T18:57:13.512Z,101696.94
2023-05-20T18:59:57.074Z,101693.94
2023-05-20T19:02:41.421Z,101695.78
2023-05-20T19:05:25.103Z,101706.75
2023-05-20T19:08:09.475Z,101705.69
2023-05-20T19:10:53.271Z,101711.19
2023-05-20T19:13:36.950Z,101709.69
2023-05-20T19:16:20.713Z,101718.56
2023-05-20T19:19:04.345Z,101715.16
2023-05-20T19:21:48.263Z,101716.94
2023-05-20T19:24:32.037Z,101719.63
2023-05-20T19:27:15.581Z,101719.59
2023-05-20T19:29:59.345Z,101727.34
2023-05-20T19:32:42.957Z,101715.41
2023-05-20T19:35:26.655Z,101721.13
2023-05-20T19:38:10.538Z,101726.59
2023-05-20T19:40:54.430Z,101726.41
2023-05-20T19:43:38.153Z,101718.91
2023-05-20T19:46:21.788Z,101724.91
2023-05-20T19:49:06.336Z,101727.56
2023-05-20T19:51:49.893Z,101736.44
2023-05-20T19:54:33.605Z,101738.00
2023-05-20T19:57:17.305Z,101729.72
2023-05-20T20:00:01.099Z,101731.75
2023-05-20T20:02:44.845Z,101733.75
2023-05-20T20:05:28.582Z,101736.16
2023-05-20T20:08:12.204Z,101738.81
2023-05-20T20:10:55.799Z,101738.81
2023-05-20T20:13:39.676Z,101734.50
2023-05-20T20:16:23.344Z,101726.59
2023-05-20T20:19:07.045Z,101721.66
2023-05-20T20:21:56.736Z,101730.28
2023-05-20T20:24:40.622Z,101729.53
2023-05-20T20:27:24.382Z,101734.03
2023-05-20T20:30:08.731Z,101728.75
2023-05-20T20:35:38.009Z,101737.44
2023-05-20T20:38:22.540Z,101732.19
2023-05-20T20:41:09.799Z,101733.72
2023-05-20T20:43:53.574Z,101729.78
2023-05-20T20:46:37.817Z,101720.69
2023-05-20T20:49:23.495Z,101726.50
2023-05-20T20:52:08.129Z,101723.13
2023-05-20T20:54:51.796Z,101719.81
2023-05-20T20:57:35.932Z,101726.22
2023-05-20T21:00:23.349Z,101717.91
2023-05-20T21:03:08.298Z,101723.16
2023-05-20T21:05:52.089Z,101718.56
2023-05-20T21:08:35.778Z,101713.91
2023-05-20T21:11:19.362Z,101717.16
2023-05-20T21:14:04.232Z,101706.16
2023-05-20T21:16:47.933Z,101698.63
2023-05-20T21:19:31.795Z,101695.97
2023-05-20T21:22:15.522Z,101699.06
2023-05-20T21:24:59.120Z,101694.53
2023-05-20T21:27:42.768Z,101694.97
2023-05-20T21:30:26.352Z,101686.25
2023-05-20T21:33:10.024Z,101689.34
2023-05-20T21:35:53.660Z,101683.66
2023-05-20T21:38:37.225Z,101683.13
2023-05-20T21:41:21.674Z,101676.97
2023-05-20T21:44:05.542Z,101679.44
2023-05-20T21:46:49.263Z,101675.16
2023-05-20T21:49:33.810Z,101668.28
2023-05-20T21:52:17.400Z,101662.47
2023-05-20T21:55:00.964Z,101673.72
2023-05-20T21:57:44.549Z,101663.28
2023-05-20T22:00:28.625Z,101661.50
2023-05-20T22:03:13.249Z,101649.38
2023-05-20T22:05:57.290Z,101650.44
2023-05-20T22:08:41.000Z,101652.13
2023-05-20T22:11:24.612Z,101649.19
2023-05-20T22:14:11.685Z,101649.50
2023-05-20T22:16:55.903Z,101652.84
2023-05-20T22:19:40.288Z,101651.94
2023-05-20T22:22:23.870Z,101657.25
2023-05-20T22:25:08.259Z,101651.53
2023-05-20T22:27:51.878Z,101661.00
2023-05-20T22:30:35.948Z,101656.59
2023-05-20T22:33:19.490Z,101651.94
2023-05-20T22:36:03.202Z,101648.25
2023-05-20T22:38:46.727Z,101651.78
2023-05-20T22:41:31.109Z,101647.75
2023-05-20T22:44:14.876Z,101634.94
2023-05-20T22:46:58.504Z,101639.38
2023-05-20T22:49:42.398Z,101640.84
2023-05-20T22:52:26.092Z,101635.28
2023-05-20T22:55:10.383Z,101636.31
2023-05-20T22:57:54.070Z,101628.81
2023-05-20T23:00:37.788Z,101644.59
2023-05-20T23:03:21.634Z,101631.97
2023-05-20T23:06:05.684Z,101627.72
2023-05-20T23:08:49.626Z,101630.47
2023-05-20T23:11:33.362Z,101624.50
2023-05-20T23:14:17.170Z,101625.56
2023-05-20T23:17:01.074Z,101619.78
2023-05-20T23:19:44.732Z,101618.22
2023-05-20T23:22:28.446Z,101622.66
2023-05-20T23:25:12.050Z,101624.22
2023-05-20T23:27:55.689Z,101615.94
2023-05-20T23:30:39.716Z,101613.09
2023-05-20T23:33:25.298Z,101616.84
2023-05-20T23:36:09.759Z,101614.44
2023-05-20T23:38:53.372Z,101609.34
2023-05-20T23:41:36.958Z,101606.19
2023-05-20T23:44:20.766Z,101603.94
2023-05-20T23:47:04.565Z,101608.13
2023-05-20T23:49:49.547Z,101599.50
2023-05-20T23:52:33.341Z,101602.72
2023-05-20T23:55:18.418Z,101599.50
2023-05-20T23:58:02.266Z,101593.88
